Latest Coastal Weather Observations for Cape Moreton

IDQ60701

Issued at 3:12 am EST Wednesday 18 October 2017 (issued every 10 minutes, with the page automatically refreshed every 10 minutes)

About coastal observations | Map of coastal stations | Coastal observations for QLD | Marine services | Other Formats
Station Details ID: 040043 Name: CAPE MORETON LIGHTHOUSE Lat: -27.03 Lon: 153.47 Height: 99.9 m
Data from the previous 72 hours. | See also: Recent months at Cape Moreton
Date/Time
EST
Temp
°C
Wind Pressure Rain since
9am
mm
Weather Cloud Vis
km
Sea
Height
m
Swell
Dir  Spd
kts
Gust
kts
hPa Trend Height
m
Period
s
Dir
18/03:00am 20.7 ESE 31 37 1019.9 - 1.4 - - - - - - -
18/02:30am 20.7 ESE 32 37 1019.9 - 1.4 - - - - - - -
18/02:00am 20.4 ESE 30 35 1020.2 - 1.4 - - - - - - -
18/01:30am 20.1 ESE 33 39 1020.3 - 1.4 - - - - - - -
18/01:00am 20.5 ESE 31 37 1020.3 - 1.4 - - - - - - -
18/12:30am 20.6 ESE 31 36 1020.7 - 1.4 - - - - - - -
18/12:00am 20.2 ESE 31 37 1021.3 - 1.4 - - - - - - -
 
Date/Time
EST
Temp
°C
Wind Pressure Rain since
9am
mm
Weather Cloud Vis
km
Sea
Height
m
Swell
Dir  Spd
kts
Gust
kts
hPa Trend Height
m
Period
s
Dir
17/11:30pm 20.4 ESE 30 36 1021.5 - 1.4 - - - - - - -
17/11:00pm 20.3 ESE 32 41 1021.6 - 1.4 - - - - - - -
17/10:53pm 20.1 ESE 30 41 1021.4 - 1.4 - - - - - - -
17/10:30pm 20.2 ESE 31 36 1021.7 - 1.4 - - - - - - -
17/10:00pm 20.5 ESE 32 38 1021.8 - 1.4 - - - - - - -
17/09:30pm 20.2 ESE 33 38 1021.7 - 1.4 - - - - - - -
17/09:00pm 20.2 ESE 30 35 1021.5 - 1.4 - - - - - - -
17/08:30pm 20.6 ESE 30 35 1021.5 - 1.4 - - - - - - -
17/08:00pm 20.1 ESE 33 39 1021.1 - 1.4 - - - - - - -
17/07:30pm 20.0 ESE 33 39 1020.9 - 1.4 - - - - - - -
17/07:00pm 20.9 ESE 32 38 1020.8 - 1.4 - - - - - - -
17/06:30pm 20.6 ESE 33 40 1020.1 - 1.4 - - - - - - -
17/06:00pm 20.9 ESE 34 40 1019.8 - 1.4 - - - - - - -
17/05:30pm 20.9 ESE 33 41 1019.6 - 1.4 - - - - - - -
17/05:00pm 20.9 ESE 33 41 1019.4 - 1.4 - - - - - - -
17/04:30pm 20.4 ESE 33 39 1019.1 - 1.4 - - - - - - -
17/04:00pm 20.4 ESE 31 38 1018.9 - 1.4 - - - - - - -
17/03:30pm 20.4 ESE 30 35 1018.7 - 1.4 - - - - - - -
17/03:00pm 20.2 ESE 30 35 1018.6 - 1.2 - - - - - - -
17/02:30pm 20.3 ESE 29 35 1018.8 - 1.2 - - - - - - -
17/02:02pm 19.8 ESE 27 37 1019.0 - 1.2 - - - - - - -
17/02:00pm 19.9 ESE 28 37 1019.0 - 1.2 - - - - - - -
17/01:30pm 20.2 ESE 30 36 1018.9 - 1.2 - - - - - - -
17/01:17pm 20.1 ESE 25 35 1019.1 - 1.0 - - - - - - -
17/01:00pm 20.0 ESE 29 35 1019.3 - 0.4 - - - - - - -
17/12:30pm 21.5 ESE 32 38 1019.1 - 0.4 - - - - - - -
17/12:00pm 21.0 ESE 33 39 1019.3 - 0.4 - - - - - - -
17/11:30am 21.4 ESE 32 37 1019.5 - 0.4 - - - - - - -
17/11:00am 21.1 ESE 34 40 1019.7 - 0.4 - - - - - - -
17/10:30am 21.1 ESE 34 41 1019.9 - 0.4 - - - - - - -
17/10:00am 20.2 ESE 31 37 1020.1 - 0.4 - - - - - - -
17/09:30am 20.1 ESE 35 42 1019.8 - 0.0 - - - - - - -
17/09:00am 20.5 ESE 33 40 1019.7 - 3.4 - - - - - - -
17/08:30am 20.1 ESE 35 42 1019.6 - 3.4 - - - - - - -
17/08:00am 20.8 ESE 36 43 1019.1 - 3.4 - - - - - - -
17/07:51am 20.7 ESE 33 43 1019.0 - 3.4 - - - - - - -
17/07:30am 20.4 ESE 32 41 1019.2 - 3.4 - - - - - - -
17/07:29am 20.3 ESE 31 41 1019.2 - 3.4 - - - - - - -
17/07:00am 20.0 ESE 35 41 1018.8 - 3.4 - - - - - - -
17/06:31am 19.3 ESE 35 46 1017.9 - 3.4 - - - - - - -
17/06:30am 19.4 ESE 34 42 1018.0 - 3.4 - - - - - - -
17/06:00am 19.1 E 31 42 1018.0 - 3.4 Rain - - - - - -
17/05:31am 19.8 ESE 31 41 1017.7 - 1.8 - - - - - - -
17/05:30am 19.9 ESE 30 37 1017.8 - 1.8 - - - - - - -
17/05:00am 19.6 ESE 34 40 1017.6 - 1.8 - - - - - - -
17/04:30am 19.2 ESE 33 38 1017.5 - 1.6 - - - - - - -
17/04:00am 18.7 ESE 34 39 1017.5 - 1.6 - - - - - - -
17/03:30am 18.3 E 36 43 1017.3 - 1.6 - - - - - - -
17/03:12am 19.8 ESE 35 45 1017.3 - 1.2 - - - - - - -
17/03:00am 20.2 ESE 33 38 1017.4 - 1.2 - - - - - - -
17/02:30am 20.4 ESE 33 39 1017.6 - 1.2 - - - - - - -
17/02:00am 20.4 ESE 36 41 1017.5 - 1.2 - - - - - - -
17/01:30am 20.9 ESE 34 39 1018.1 - 1.2 - - - - - - -
17/01:00am 20.8 ESE 35 41 1018.2 - 1.2 - - - - - - -
17/12:30am 20.6 ESE 34 40 1018.3 - 1.2 - - - - - - -
17/12:00am 20.8 ESE 31 37 1018.9 - 1.2 - - - - - - -
 
Date/Time
EST
Temp
°C
Wind Pressure Rain since
9am
mm
Weather Cloud Vis
km
Sea
Height
m
Swell
Dir  Spd
kts
Gust
kts
hPa Trend Height
m
Period
s
Dir
16/11:30pm 20.8 ESE 33 38 1019.1 - 1.2 - - - - - - -
16/11:11pm 20.6 ESE 29 39 1019.3 - 1.2 - - - - - - -
16/11:00pm 20.6 ESE 30 35 1019.6 - 1.2 - - - - - - -
16/10:30pm 20.3 ESE 30 36 1019.7 - 1.2 - - - - - - -
16/10:00pm 20.8 ESE 32 36 1019.8 - 1.2 - - - - - - -
16/09:30pm 21.1 ESE 30 36 1019.8 - 1.2 - - - - - - -
16/09:00pm 21.3 ESE 33 40 1019.5 - 1.2 - - - - - - -
16/08:30pm 21.1 ESE 33 38 1019.1 - 1.2 - - - - - - -
16/08:00pm 21.1 ESE 31 36 1018.9 - 1.2 - - - - - - -
16/07:30pm 21.1 ESE 33 38 1018.6 - 1.2 - - - - - - -
16/07:00pm 20.7 ESE 31 40 1018.4 - 1.2 - - - - - - -
16/06:32pm 21.0 ESE 32 43 1018.0 - 1.0 - - - - - - -
16/06:30pm 21.0 ESE 31 37 1018.2 - 1.0 - - - - - - -
16/06:00pm 20.7 ESE 32 38 1017.6 - 1.0 - - - - - - -
16/05:30pm 20.7 ESE 30 36 1017.6 - 1.0 - - - - - - -
16/05:00pm 20.9 ESE 33 39 1017.3 - 1.0 - - - - - - -
16/04:30pm 20.7 ESE 33 38 1016.9 - 1.0 - - - - - - -
16/04:00pm 20.4 ESE 33 40 1016.6 - 1.0 - - - - - - -
16/03:30pm 20.1 ESE 35 42 1016.4 - 0.8 - - - - - - -
16/03:00pm 20.0 ESE 36 41 1016.1 - 0.8 Recent precip. - - - - - -
16/02:30pm 20.1 ESE 35 40 1016.1 - 0.6 - - - - - - -
16/02:00pm 20.4 ESE 33 38 1016.5 - 0.4 - - - - - - -
16/01:30pm 20.7 ESE 33 39 1016.6 - 0.2 - - - - - - -
16/01:00pm 20.4 ESE 34 41 1016.8 - 0.2 - - - - - - -
16/12:30pm 20.4 ESE 33 39 1017.2 - 0.2 - - - - - - -
16/12:00pm 20.8 ESE 35 40 1017.2 - 0.2 - - - - - - -
16/11:30am 21.1 ESE 35 40 1017.7 - 0.2 - - - - - - -
16/11:00am 20.7 ESE 33 39 1017.7 - 0.2 - - - - - - -
16/10:30am 20.5 ESE 34 41 1017.9 - 0.2 - - - - - - -
16/10:00am 20.0 ESE 35 41 1017.9 - 0.2 - - - - - - -
16/09:30am 20.1 ESE 37 44 1017.6 - 0.2 - - - - - - -
16/09:00am 19.9 ESE 35 42 1017.8 - 2.0 Recent precip. - - - - - -
16/08:30am 20.0 ESE 35 45 1017.6 - 2.0 - - - - - - -
16/08:28am 19.8 ESE 34 45 1017.4 - 2.0 - - - - - - -
16/08:00am 20.4 ESE 33 38 1017.8 - 1.4 - - - - - - -
16/07:30am 19.4 ESE 32 40 1017.6 - 1.2 - - - - - - -
16/07:00am 18.9 ESE 31 39 1017.3 - 1.2 - - - - - - -
16/06:30am 20.3 ESE 30 35 1017.4 - 0.8 - - - - - - -
16/06:00am 20.4 ESE 30 35 1017.0 - 0.8 - - - - - - -
16/05:30am 20.7 ESE 30 34 1016.8 - 0.8 - - - - - - -
16/05:00am 20.7 ESE 29 35 1016.0 - 0.8 - - - - - - -
16/04:30am 20.9 ESE 31 35 1015.7 - 0.8 - - - - - - -
16/04:00am 20.7 ESE 29 36 1015.7 - 0.8 - - - - - - -
16/03:30am 20.7 ESE 29 34 1015.6 - 0.8 - - - - - - -
16/03:00am 20.4 ESE 31 35 1015.4 - 0.8 - - - - - - -
16/02:30am 19.9 ESE 31 36 1015.5 - 0.8 - - - - - - -
16/02:00am 20.5 ESE 33 39 1015.6 - 0.8 - - - - - - -
16/01:30am 20.9 ESE 32 37 1015.6 - 0.8 - - - - - - -
16/01:00am 20.7 ESE 34 42 1015.3 - 0.8 - - - - - - -
16/12:30am 20.7 ESE 35 41 1015.5 - 0.8 - - - - - - -
16/12:00am 20.7 ESE 35 42 1015.5 - 0.8 - - - - - - -
 
Date/Time
EST
Temp
°C
Wind Pressure Rain since
9am
mm
Weather Cloud Vis
km
Sea
Height
m
Swell
Dir  Spd
kts
Gust
kts
hPa Trend Height
m
Period
s
Dir
15/11:30pm 20.8 ESE 36 42 1015.9 - 0.8 - - - - - - -
15/11:00pm 20.8 ESE 34 39 1016.6 - 0.8 - - - - - - -
15/10:30pm 20.8 SE 34 40 1016.6 - 0.8 - - - - - - -
15/10:00pm 20.7 ESE 36 43 1016.4 - 0.8 - - - - - - -
15/09:30pm 20.6 ESE 34 40 1016.5 - 0.8 - - - - - - -
15/09:00pm 20.1 ESE 34 40 1016.7 - 0.8 - - - - - - -
15/08:30pm 20.3 ESE 33 37 1016.9 - 0.8 - - - - - - -
15/08:06pm 20.3 ESE 33 43 1016.8 - 0.8 - - - - - - -
15/08:00pm 20.0 ESE 35 43 1016.5 - 0.8 - - - - - - -
15/07:54pm 20.3 ESE 37 47 1016.6 - 0.8 - - - - - - -
15/07:30pm 19.7 ESE 34 42 1016.0 - 0.6 - - - - - - -
15/07:00pm 19.4 ESE 35 41 1016.0 - 0.6 - - - - - - -
15/06:47pm 18.6 ESE 39 49 1015.9 - 0.6 - - - - - - -
15/06:38pm 18.5 ESE 33 49 1015.3 - 0.6 - - - - - - -
15/06:36pm 19.4 ESE 31 42 1015.7 - 0.6 - - - - - - -
15/06:30pm 19.1 ESE 31 38 1015.8 - 0.6 - - - - - - -
15/06:06pm 20.2 ESE 35 48 1015.1 - 0.6 - - - - - - -
15/06:00pm 20.2 ESE 37 43 1015.2 - 0.6 - - - - - - -
15/05:42pm 20.4 ESE 37 47 1014.8 - 0.6 - - - - - - -
15/05:30pm 20.4 ESE 37 41 1015.0 - 0.6 - - - - - - -
15/05:00pm 20.3 ESE 37 41 1014.5 - 0.6 - - - - - - -
15/04:30pm 20.2 ESE 36 43 1014.2 - 0.4 - - - - - - -
15/04:00pm 19.6 SE 32 39 1014.1 - 0.4 - - - - - - -
15/03:30pm 20.4 ESE 28 32 1014.3 - 0.0 - - - - - - -
15/03:00pm 19.8 SE 30 36 1014.1 - 0.0 - - - - - - -
15/02:30pm 19.6 SE 31 39 1014.1 - 0.0 - - - - - - -
15/02:00pm 20.9 SE 29 34 1014.1 - 0.0 - - - - - - -
15/01:30pm 21.1 SE 29 35 1014.4 - 0.0 - - - - - - -
15/01:00pm 21.2 SE 27 31 1014.7 - 0.0 - - - - - - -
15/12:30pm 21.4 SE 28 33 1015.0 - 0.0 - - - - - - -
15/12:00pm 21.2 SE 29 33 1015.2 - 0.0 - - - - - - -
15/11:30am 21.4 SE 31 35 1015.4 - 0.0 - - - - - - -
15/11:00am 21.1 ESE 30 37 1015.6 - 0.0 - - - - - - -
15/10:30am 20.9 ESE 27 30 1016.2 - 0.0 - - - - - - -
15/10:00am 20.0 ESE 27 33 1016.4 - 0.0 - - - - - - -
15/09:30am 19.0 E 30 35 1016.2 - 0.0 - - - - - - -
15/09:00am 21.1 ESE 34 41 1015.7 - 44.4 - - - - - - -
15/08:30am 21.0 ESE 32 38 1015.6 - 44.4 - - - - - - -
15/08:00am 21.5 ESE 27 31 1015.6 - 44.4 - - - - - - -
15/07:30am 21.2 ESE 25 29 1015.4 - 44.4 - - - - - - -
15/07:00am 21.4 ESE 23 27 1015.3 - 44.4 - - - - - - -
15/06:30am 20.9 ESE 21 25 1015.1 - 44.4 - - - - - - -
15/06:00am 20.5 ESE 23 28 1015.0 - 44.4 - - - - - - -
15/05:30am 19.9 ESE 23 29 1014.5 - 44.4 - - - - - - -
15/05:00am 20.2 ESE 22 26 1014.5 - 44.4 - - - - - - -
15/04:30am 19.8 ESE 18 21 1014.3 - 44.4 - - - - - - -
15/04:00am 19.9 ESE 20 24 1014.1 - 44.4 - - - - - - -
15/03:30am 19.7 ESE 21 26 1013.8 - 44.4 - - - - - - -

Other Formats:

Comma delimited format used in spreadsheet applications
http://www.bom.gov.au/fwo/IDQ60701/IDQ60701.94594.axf

JavaScript Object Notation format (JSON) in row-major order
http://www.bom.gov.au/fwo/IDQ60701/IDQ60701.94594.json